Time;durP1;ratioP1;P1;durP2;ratioP2;P2;SDS_P1;SDS_P2;PMS_P1;PMS_P2;Temp;Humidity;BMP_temperature;BMP_pressure;BME280_temperature;BME280_humidity;BME280_pressure;Samples;Min_cycle;Max_cycle;Signal;HPM_P1;HPM_P2
2020/12/24 00:00:25;;;;;;;18.55;3.50;;;11.50;99.90;;;;;;4824555;29;20046;-70
2020/12/24 00:02:50;;;;;;;15.93;2.90;;;11.40;99.90;;;;;;4824315;29;20423;-70
2020/12/24 00:05:16;;;;;;;15.77;3.10;;;11.40;99.90;;;;;;4824230;29;20479;-69
2020/12/24 00:07:42;;;;;;;14.82;2.92;;;11.40;99.90;;;;;;4824426;29;20129;-68
2020/12/24 00:13:29;;;;;;;17.50;3.25;;;11.40;99.90;;;;;;4824377;29;20050;-71
2020/12/24 00:15:55;;;;;;;16.65;3.28;;;11.40;99.90;;;;;;4824152;29;20360;-71
2020/12/24 00:18:21;;;;;;;19.40;4.22;;;11.40;99.90;;;;;;4824412;29;20035;-67
2020/12/24 00:20:47;;;;;;;16.65;3.33;;;11.40;99.90;;;;;;4824289;29;20436;-68
2020/12/24 00:23:14;;;;;;;20.30;3.40;;;11.30;99.90;;;;;;4824105;29;20034;-69
2020/12/24 00:29:06;;;;;;;15.50;3.30;;;11.40;99.90;;;;;;4824222;29;20053;-69
2020/12/24 00:31:33;;;;;;;17.23;3.05;;;11.30;99.90;;;;;;4824232;29;20038;-69
2020/12/24 00:34:00;;;;;;;18.17;3.05;;;11.30;99.90;;;;;;4823934;29;20035;-69
2020/12/24 00:36:26;;;;;;;21.02;3.75;;;11.30;99.90;;;;;;4824147;29;20042;-70
2020/12/24 00:38:51;;;;;;;17.38;3.20;;;11.20;99.90;;;;;;4824052;29;20391;-71
2020/12/24 00:41:17;;;;;;;13.15;3.10;;;11.20;99.90;;;;;;4823746;29;20391;-70
2020/12/24 00:43:43;;;;;;;17.83;3.38;;;11.30;99.90;;;;;;4823669;29;20073;-71
2020/12/24 00:46:08;;;;;;;19.25;3.20;;;11.20;99.90;;;;;;4823882;29;20030;-71
2020/12/24 00:48:34;;;;;;;14.27;2.95;;;11.20;99.90;;;;;;4824015;29;20035;-70
2020/12/24 00:51:00;;;;;;;15.02;3.15;;;11.20;99.90;;;;;;4823760;29;20034;-70
2020/12/24 00:53:25;;;;;;;17.45;2.95;;;11.20;99.90;;;;;;4823752;29;20027;-70
2020/12/24 00:59:13;;;;;;;16.65;2.88;;;11.10;99.90;;;;;;4827188;29;20125;-70
2020/12/24 01:01:39;;;;;;;15.07;2.70;;;11.10;99.90;;;;;;4827283;29;20038;-71
2020/12/24 01:04:05;;;;;;;16.20;2.83;;;11.10;99.90;;;;;;4827272;29;20033;-71
2020/12/24 01:06:31;;;;;;;16.10;2.72;;;11.10;99.90;;;;;;4827178;29;20030;-71
2020/12/24 01:08:56;;;;;;;17.27;2.88;;;11.10;99.90;;;;;;4827170;29;20353;-70
2020/12/24 01:11:29;;;;;;;13.50;2.85;;;11.00;99.90;;;;;;4826965;29;20483;-69
2020/12/24 01:13:56;;;;;;;10.10;2.78;;;11.00;99.90;;;;;;4826877;29;20399;-70
2020/12/24 01:16:21;;;;;;;13.60;2.55;;;11.00;99.90;;;;;;4826798;29;20033;-71
2020/12/24 01:18:47;;;;;;;14.90;3.08;;;11.10;99.90;;;;;;4826780;29;20038;-68
2020/12/24 01:21:13;;;;;;;14.80;2.95;;;11.10;99.90;;;;;;4826708;29;20095;-70
2020/12/24 01:23:39;;;;;;;17.20;2.95;;;11.00;99.90;;;;;;4826708;29;20026;-70
2020/12/24 01:29:26;;;;;;;18.65;2.95;;;11.00;99.90;;;;;;4826830;29;20037;-71
2020/12/24 01:31:51;;;;;;;17.45;3.15;;;11.10;99.90;;;;;;4826788;29;20034;-71
2020/12/24 01:34:18;;;;;;;14.32;2.60;;;11.10;99.90;;;;;;4826763;29;20384;-72
2020/12/24 01:36:44;;;;;;;16.40;3.08;;;11.10;99.90;;;;;;4826428;29;20079;-69
2020/12/24 01:39:11;;;;;;;13.10;2.92;;;11.10;99.90;;;;;;4826666;29;20030;-71
2020/12/24 01:41:37;;;;;;;13.88;3.05;;;11.00;99.90;;;;;;4826247;29;20472;-71
2020/12/24 01:44:03;;;;;;;15.63;3.30;;;11.00;99.90;;;;;;4826218;29;20056;-73
2020/12/24 01:46:28;;;;;;;15.68;2.72;;;11.00;99.90;;;;;;4826345;29;20113;-69
2020/12/24 01:48:54;;;;;;;19.77;3.08;;;11.00;99.90;;;;;;4826288;29;20073;-69
2020/12/24 01:51:26;;;;;;;14.93;2.55;;;11.00;99.90;;;;;;4826172;29;20054;-70
2020/12/24 01:53:53;;;;;;;15.48;2.88;;;11.00;99.90;;;;;;4826116;29;20113;-69
2020/12/24 01:56:20;;;;;;;14.82;2.78;;;11.00;99.90;;;;;;4826382;29;20113;-70
2020/12/24 01:58:46;;;;;;;10.90;2.38;;;11.00;99.90;;;;;;4826084;29;20084;-69
2020/12/24 02:01:11;;;;;;;17.00;3.20;;;11.10;99.90;;;;;;4826018;29;20438;-70
2020/12/24 02:03:37;;;;;;;16.17;2.70;;;11.10;99.90;;;;;;4810230;29;20454;-70
2020/12/24 02:06:03;;;;;;;16.13;3.40;;;11.10;99.90;;;;;;4826285;29;20066;-68
2020/12/24 02:08:29;;;;;;;16.30;2.97;;;11.00;99.90;;;;;;4825045;29;20482;-70
2020/12/24 02:14:16;;;;;;;16.65;3.08;;;11.00;99.90;;;;;;4826414;29;20107;-69
2020/12/24 02:16:42;;;;;;;16.38;2.92;;;10.90;99.90;;;;;;4826175;29;20460;-71
2020/12/24 02:19:07;;;;;;;14.35;2.95;;;11.00;99.90;;;;;;4825987;29;20034;-70
2020/12/24 02:21:34;;;;;;;14.52;2.83;;;10.90;99.90;;;;;;4825923;29;20034;-69
2020/12/24 02:24:00;;;;;;;16.17;2.83;;;10.80;99.90;;;;;;4825976;29;20108;-72
2020/12/24 02:29:47;;;;;;;14.82;2.95;;;10.80;99.90;;;;;;4826040;29;20041;-72
2020/12/24 02:32:13;;;;;;;10.50;2.42;;;10.90;99.90;;;;;;4825801;29;20030;-70
2020/12/24 02:34:39;;;;;;;14.63;2.80;;;10.80;99.90;;;;;;4825911;29;20190;-71
2020/12/24 02:37:06;;;;;;;18.85;2.80;;;10.90;99.90;;;;;;4825554;29;20135;-71
2020/12/24 02:39:32;;;;;;;18.02;3.03;;;10.90;99.90;;;;;;4825551;29;20037;-71
2020/12/24 02:41:57;;;;;;;13.80;2.53;;;10.90;99.90;;;;;;4825679;29;20415;-75
2020/12/24 02:44:23;;;;;;;16.58;2.70;;;10.80;99.90;;;;;;4825345;29;20111;-70
2020/12/24 02:46:49;;;;;;;14.85;3.10;;;10.80;99.90;;;;;;4825394;29;20038;-70
2020/12/24 02:49:14;;;;;;;18.60;3.13;;;10.80;99.90;;;;;;4825552;29;20030;-70
2020/12/24 02:51:40;;;;;;;9.93;2.40;;;10.80;99.90;;;;;;4825245;29;20412;-71
2020/12/24 02:54:06;;;;;;;12.80;2.95;;;10.80;99.90;;;;;;4825329;29;20034;-68
2020/12/24 02:59:53;;;;;;;14.32;2.78;;;10.80;99.90;;;;;;4825494;29;20033;-71
2020/12/24 03:02:19;;;;;;;11.85;2.92;;;10.80;99.90;;;;;;4825124;29;20038;-69
2020/12/24 03:04:44;;;;;;;10.65;2.40;;;10.80;99.90;;;;;;4825107;29;20045;-70
2020/12/24 03:07:10;;;;;;;15.20;2.90;;;10.90;99.90;;;;;;4825256;29;20070;-69
2020/12/24 03:09:36;;;;;;;16.17;3.38;;;10.90;99.90;;;;;;4825276;29;20027;-70
2020/12/24 03:12:02;;;;;;;15.07;2.47;;;10.80;99.90;;;;;;4824997;29;20030;-70
2020/12/24 03:14:27;;;;;;;12.55;2.88;;;10.80;99.90;;;;;;4824878;29;20113;-70
2020/12/24 03:16:53;;;;;;;15.02;2.55;;;10.80;99.90;;;;;;4825187;29;20113;-70
2020/12/24 03:19:19;;;;;;;16.10;3.25;;;10.90;99.90;;;;;;4824895;29;20087;-70
2020/12/24 03:21:44;;;;;;;11.38;2.55;;;10.80;99.90;;;;;;4825078;29;20423;-70
2020/12/24 03:24:10;;;;;;;13.98;2.58;;;10.80;99.90;;;;;;4825089;29;20041;-70
2020/12/24 03:29:58;;;;;;;9.90;2.58;;;10.70;99.90;;;;;;4825114;29;20063;-68
2020/12/24 03:32:24;;;;;;;10.25;1.92;;;10.70;99.90;;;;;;4824889;29;20026;-69
2020/12/24 03:34:49;;;;;;;14.60;2.63;;;10.70;99.90;;;;;;4825061;29;20034;-70
2020/12/24 03:37:15;;;;;;;12.02;2.47;;;10.70;99.90;;;;;;4824731;29;20034;-69
2020/12/24 03:39:41;;;;;;;14.05;2.67;;;10.70;99.90;;;;;;4824435;29;20042;-73
2020/12/24 03:42:06;;;;;;;13.07;2.50;;;10.70;99.90;;;;;;4824400;29;20034;-71
2020/12/24 03:44:32;;;;;;;11.98;2.88;;;10.70;99.90;;;;;;4824371;29;20059;-68
2020/12/24 03:46:58;;;;;;;12.70;2.38;;;10.70;99.90;;;;;;4824556;29;20035;-70
2020/12/24 03:49:23;;;;;;;13.65;2.30;;;10.80;99.90;;;;;;4824605;29;20034;-69
2020/12/24 03:51:49;;;;;;;12.55;2.25;;;10.80;99.90;;;;;;4824410;29;20061;-69
2020/12/24 03:54:15;;;;;;;8.30;1.98;;;10.70;99.90;;;;;;4824319;29;20069;-69
2020/12/24 04:00:04;;;;;;;10.32;1.80;;;10.70;99.90;;;;;;4824380;29;20552;-70
2020/12/24 04:02:30;;;;;;;12.35;2.22;;;10.70;99.90;;;;;;4824297;29;20060;-70
2020/12/24 04:04:55;;;;;;;10.00;2.38;;;10.70;99.90;;;;;;4824304;29;20026;-70
2020/12/24 04:07:21;;;;;;;13.88;2.00;;;10.70;99.90;;;;;;4824616;29;20088;-71
2020/12/24 04:09:47;;;;;;;9.82;2.10;;;10.60;99.90;;;;;;4824547;29;20471;-70
2020/12/24 04:12:13;;;;;;;12.25;2.42;;;10.60;99.90;;;;;;4824193;29;20031;-69
2020/12/24 04:14:38;;;;;;;11.75;2.40;;;10.60;99.90;;;;;;4824540;29;20022;-71
2020/12/24 04:17:04;;;;;;;8.35;1.98;;;10.60;99.90;;;;;;4824170;29;20035;-70
2020/12/24 04:19:30;;;;;;;11.48;2.03;;;10.60;99.90;;;;;;4824371;29;20066;-72
2020/12/24 04:21:55;;;;;;;11.98;1.98;;;10.60;99.90;;;;;;4824017;29;20068;-72
2020/12/24 04:24:21;;;;;;;9.95;2.00;;;10.50;99.90;;;;;;4824121;29;20026;-69
2020/12/24 04:30:08;;;;;;;12.02;2.03;;;10.50;99.90;;;;;;4824073;29;20029;-70
2020/12/24 04:32:35;;;;;;;10.15;2.10;;;10.50;99.90;;;;;;4827415;29;20030;-70
2020/12/24 04:35:01;;;;;;;16.98;2.95;;;10.50;99.90;;;;;;4827900;29;20031;-71
2020/12/24 04:37:27;;;;;;;11.40;1.92;;;10.40;99.90;;;;;;4827751;29;20479;-70
2020/12/24 04:39:52;;;;;;;11.85;2.25;;;10.40;99.90;;;;;;4827423;29;20476;-67
2020/12/24 04:42:20;;;;;;;9.27;2.10;;;10.40;99.90;;;;;;4827505;29;20042;-70
2020/12/24 04:44:49;;;;;;;9.48;2.45;;;10.40;99.90;;;;;;4827563;29;20042;-70
2020/12/24 04:47:19;;;;;;;8.68;2.05;;;10.30;99.90;;;;;;4827394;29;20566;-72
2020/12/24 04:49:46;;;;;;;9.20;2.15;;;10.30;99.90;;;;;;4827499;29;20034;-71
2020/12/24 04:52:15;;;;;;;12.90;2.20;;;10.30;99.90;;;;;;4827485;29;20034;-70
2020/12/24 04:54:41;;;;;;;10.32;2.15;;;10.30;99.90;;;;;;4827348;29;20035;-69
2020/12/24 05:00:29;;;;;;;11.05;2.25;;;10.40;99.90;;;;;;4827428;29;20056;-71
2020/12/24 05:03:11;;;;;;;14.65;2.70;;;10.40;99.90;;;;;;4826933;29;20049;-70
2020/12/24 05:05:38;;;;;;;10.00;2.20;;;10.30;99.90;;;;;;4827081;29;20022;-71
2020/12/24 05:08:05;;;;;;;11.98;2.35;;;10.20;99.90;;;;;;4826931;29;20045;-70
2020/12/24 05:10:32;;;;;;;13.02;2.45;;;10.20;99.90;;;;;;4826860;29;20495;-69
2020/12/24 05:12:58;;;;;;;13.40;2.55;;;10.20;99.90;;;;;;4827116;29;20066;-70
2020/12/24 05:15:28;;;;;;;9.65;2.80;;;10.20;99.90;;;;;;4827219;29;20103;-71
2020/12/24 05:18:11;;;;;;;9.95;3.00;;;10.10;99.90;;;;;;4826854;29;20546;-71
2020/12/24 05:20:40;;;;;;;7.50;2.88;;;10.10;99.90;;;;;;4826705;29;20044;-70
2020/12/24 05:23:20;;;;;;;9.45;2.78;;;10.10;99.90;;;;;;4826624;29;20117;-72
2020/12/24 05:25:48;;;;;;;11.75;2.97;;;10.00;99.90;;;;;;4826648;29;20038;-69
2020/12/24 05:28:23;;;;;;;16.90;2.78;;;9.80;99.90;;;;;;4826873;29;20030;-69
2020/12/24 05:30:50;;;;;;;12.30;2.40;;;9.80;99.90;;;;;;4826816;29;20114;-71
2020/12/24 05:33:30;;;;;;;11.85;2.25;;;9.70;99.90;;;;;;4826864;29;20037;-71
2020/12/24 05:36:21;;;;;;;13.77;2.20;;;9.70;99.90;;;;;;4826856;29;20030;-70
2020/12/24 05:38:48;;;;;;;13.25;2.30;;;9.70;99.90;;;;;;4826812;29;20048;-72
2020/12/24 05:41:35;;;;;;;13.63;2.55;;;9.70;99.90;;;;;;4826233;29;20387;-72
2020/12/24 05:44:04;;;;;;;16.08;2.13;;;9.50;99.90;;;;;;4826266;29;20070;-69
2020/12/24 05:46:46;;;;;;;14.75;2.30;;;9.40;99.90;;;;;;4826536;29;20022;-68
2020/12/24 05:49:19;;;;;;;19.50;3.20;;;9.20;99.90;;;;;;4826641;29;20037;-70
2020/12/24 05:51:57;;;;;;;17.25;2.10;;;9.30;99.90;;;;;;4826275;29;20041;-70
2020/12/24 05:54:23;;;;;;;8.98;1.52;;;9.20;99.90;;;;;;4826311;29;20038;-69
2020/12/24 05:56:49;;;;;;;12.77;1.70;;;9.30;99.90;;;;;;4826447;29;20061;-69
2020/12/24 05:59:19;;;;;;;11.13;2.08;;;9.20;99.90;;;;;;4826437;29;20076;-69
2020/12/24 06:02:10;;;;;;;8.77;1.70;;;9.10;99.90;;;;;;4826100;29;20045;-69
2020/12/24 06:04:45;;;;;;;12.05;1.70;;;9.00;99.90;;;;;;4826066;29;20383;-70
2020/12/24 06:07:15;;;;;;;13.60;1.80;;;9.10;99.90;;;;;;4826009;29;20034;-69
2020/12/24 06:09:43;;;;;;;11.63;1.98;;;9.10;99.90;;;;;;4825919;29;20480;-69
2020/12/24 06:12:16;;;;;;;9.50;1.58;;;9.10;99.90;;;;;;4825868;29;20593;-69
2020/12/24 06:14:47;;;;;;;8.23;1.27;;;9.00;99.90;;;;;;4826190;29;20047;-67
2020/12/24 06:17:14;;;;;;;12.57;1.50;;;9.10;99.90;;;;;;4826088;29;20380;-68
2020/12/24 06:19:41;;;;;;;5.18;1.20;;;9.00;99.90;;;;;;4825664;29;20041;-68
2020/12/24 06:22:07;;;;;;;9.23;1.50;;;9.00;99.90;;;;;;4825946;29;20038;-67
2020/12/24 06:24:37;;;;;;;6.07;1.25;;;9.00;99.90;;;;;;4825771;29;20033;-68
2020/12/24 06:27:07;;;;;;;9.40;2.03;;;8.90;99.90;;;;;;4825888;29;20168;-69
2020/12/24 06:29:36;;;;;;;12.60;1.92;;;9.00;99.90;;;;;;4825712;29;20033;-69
2020/12/24 06:32:05;;;;;;;6.78;1.48;;;8.90;99.90;;;;;;4825832;29;20030;-69
2020/12/24 06:34:31;;;;;;;8.68;1.30;;;8.90;99.90;;;;;;4825607;29;20023;-69
2020/12/24 06:37:18;;;;;;;5.90;1.10;;;8.80;99.90;;;;;;4825876;29;20030;-68
2020/12/24 06:39:46;;;;;;;10.02;1.58;;;8.80;99.90;;;;;;4825589;29;20113;-68
2020/12/24 06:42:39;;;;;;;13.65;1.50;;;8.80;99.90;;;;;;4825452;29;20046;-69
2020/12/24 06:45:20;;;;;;;8.73;1.35;;;8.90;99.90;;;;;;4814582;29;20090;-68
2020/12/24 06:48:12;;;;;;;8.55;1.20;;;8.80;99.90;;;;;;4825384;29;20038;-69
2020/12/24 06:50:39;;;;;;;9.15;1.70;;;8.80;99.90;;;;;;4825219;29;20095;-69
2020/12/24 06:53:23;;;;;;;8.85;1.20;;;8.80;99.90;;;;;;4825525;29;20034;-67
2020/12/24 06:59:18;;;;;;;5.82;1.42;;;8.70;99.90;;;;;;4825453;29;20099;-67
2020/12/24 07:01:59;;;;;;;10.40;1.55;;;8.80;99.90;;;;;;4825426;29;20031;-68
2020/12/24 07:04:35;;;;;;;7.28;1.20;;;8.80;99.90;;;;;;4825421;29;20039;-69
2020/12/24 07:07:01;;;;;;;6.75;1.33;;;8.80;99.90;;;;;;4825376;29;20045;-67
2020/12/24 07:09:26;;;;;;;7.03;1.40;;;8.80;99.90;;;;;;4825021;29;20027;-65
2020/12/24 07:15:21;;;;;;;9.48;1.58;;;8.90;99.90;;;;;;4825270;29;20430;-69
2020/12/24 07:17:47;;;;;;;5.93;1.30;;;8.80;99.90;;;;;;4825210;29;20030;-68
2020/12/24 07:20:17;;;;;;;4.22;1.20;;;8.90;99.90;;;;;;4824836;29;20402;-68
2020/12/24 07:22:45;;;;;;;5.82;1.08;;;8.90;99.90;;;;;;4824981;29;20049;-69
2020/12/24 07:25:11;;;;;;;6.63;1.30;;;8.90;99.90;;;;;;4825054;29;20081;-69
2020/12/24 07:31:07;;;;;;;8.25;1.42;;;9.00;99.90;;;;;;4824965;29;20034;-68
2020/12/24 07:33:34;;;;;;;10.05;1.33;;;8.90;99.90;;;;;;4824949;29;20468;-70
2020/12/24 07:36:00;;;;;;;9.50;1.38;;;8.90;99.90;;;;;;4824942;29;20043;-70
2020/12/24 07:38:28;;;;;;;6.10;1.30;;;8.90;99.90;;;;;;4824769;29;20031;-66
2020/12/24 07:40:55;;;;;;;5.93;1.30;;;8.90;99.90;;;;;;4824512;29;20030;-69
2020/12/24 07:47:03;;;;;;;9.70;1.27;;;9.10;99.90;;;;;;4823490;29;20104;-68
2020/12/24 07:49:29;;;;;;;7.80;1.60;;;9.10;99.90;;;;;;4824583;29;20045;-68
2020/12/24 07:51:57;;;;;;;7.97;1.45;;;9.10;99.90;;;;;;4824671;29;20030;-68
2020/12/24 07:54:29;;;;;;;5.53;1.30;;;9.20;99.90;;;;;;4824786;29;20061;-69
2020/12/24 07:56:55;;;;;;;6.28;1.20;;;9.10;99.90;;;;;;4824378;29;20114;-68
2020/12/24 07:59:22;;;;;;;7.38;1.10;;;9.00;99.90;;;;;;4824598;29;20109;-70
2020/12/24 08:01:48;;;;;;;4.30;1.30;;;9.10;99.90;;;;;;4824506;29;20031;-69
2020/12/24 08:04:13;;;;;;;6.55;1.20;;;8.60;99.90;;;;;;4824457;29;20425;-69
2020/12/24 08:06:39;;;;;;;9.43;1.35;;;7.80;99.90;;;;;;4823595;29;20034;-68
2020/12/24 08:09:12;;;;;;;6.85;1.40;;;7.60;99.90;;;;;;4824238;29;20084;-70
2020/12/24 08:11:39;;;;;;;7.45;1.42;;;7.40;99.90;;;;;;4824398;29;20375;-70
2020/12/24 08:14:05;;;;;;;4.80;1.25;;;7.30;99.90;;;;;;4824334;29;20088;-68
2020/12/24 08:16:35;;;;;;;8.60;1.45;;;7.30;99.90;;;;;;4824238;29;20039;-70
2020/12/24 08:19:09;;;;;;;7.18;1.10;;;7.20;99.90;;;;;;4824438;29;20084;-70
2020/12/24 08:21:53;;;;;;;7.28;1.25;;;7.20;99.90;;;;;;4824064;29;20034;-71
2020/12/24 08:24:19;;;;;;;6.90;1.53;;;7.20;99.90;;;;;;4824063;29;20022;-70
2020/12/24 08:26:45;;;;;;;8.90;1.48;;;7.20;99.90;;;;;;4824227;29;20276;-70
2020/12/24 08:29:13;;;;;;;6.55;1.40;;;7.30;99.90;;;;;;4824055;29;20037;-70
2020/12/24 08:31:41;;;;;;;8.63;1.48;;;7.30;99.90;;;;;;4823777;29;20041;-69
2020/12/24 08:34:10;;;;;;;6.57;1.45;;;7.30;99.90;;;;;;4823964;29;20081;-69
2020/12/24 08:36:45;;;;;;;9.02;1.65;;;7.30;99.90;;;;;;4823879;29;20043;-69
2020/12/24 08:39:13;;;;;;;7.22;1.50;;;7.30;99.90;;;;;;4824128;29;20064;-65
2020/12/24 08:41:47;;;;;;;6.78;1.48;;;8.10;99.90;;;;;;4823700;29;20133;-66
2020/12/24 08:44:19;;;;;;;9.75;1.40;;;8.50;99.90;;;;;;4823806;29;20118;-62
2020/12/24 08:46:46;;;;;;;4.53;1.20;;;8.70;99.90;;;;;;4823738;29;20051;-62
2020/12/24 08:49:25;;;;;;;9.48;1.75;;;8.80;99.90;;;;;;4823811;29;20083;-59
2020/12/24 08:52:14;;;;;;;9.55;1.80;;;9.20;99.90;;;;;;4823766;29;20041;-61
2020/12/24 08:54:59;;;;;;;11.18;1.52;;;9.10;99.90;;;;;;4823824;29;20034;-58
2020/12/24 08:57:25;;;;;;;8.20;1.63;;;9.50;99.90;;;;;;4823715;29;20026;-63
2020/12/24 08:59:55;;;;;;;8.02;1.60;;;9.40;99.90;;;;;;4823986;29;20313;-59
2020/12/24 09:02:31;;;;;;;9.48;1.60;;;9.50;99.90;;;;;;4823380;29;20042;-66
2020/12/24 09:04:58;;;;;;;7.18;1.73;;;9.30;99.90;;;;;;4823968;29;20034;-61
2020/12/24 09:07:29;;;;;;;6.47;1.52;;;9.20;99.90;;;;;;4823587;29;20034;-61
2020/12/24 09:10:05;;;;;;;7.25;1.63;;;9.60;99.90;;;;;;4823745;29;20026;-72
2020/12/24 09:12:32;;;;;;;9.70;1.70;;;9.40;99.90;;;;;;4823588;29;20027;-60
2020/12/24 09:14:59;;;;;;;6.55;1.58;;;9.60;99.90;;;;;;4823828;29;20041;-72
2020/12/24 09:17:24;;;;;;;8.27;2.05;;;9.70;99.90;;;;;;4824862;29;20037;-61
2020/12/24 09:20:01;;;;;;;5.82;1.95;;;10.00;99.90;;;;;;4827062;29;20038;-60
2020/12/24 09:22:26;;;;;;;9.43;2.08;;;9.60;99.90;;;;;;4826922;29;20121;-61
2020/12/24 09:24:52;;;;;;;8.63;2.03;;;9.70;99.90;;;;;;4826746;29;20527;-61
2020/12/24 09:27:17;;;;;;;6.88;2.00;;;9.30;99.90;;;;;;4826776;29;20038;-67
2020/12/24 09:29:44;;;;;;;6.88;1.92;;;10.70;99.90;;;;;;4826819;29;20057;-69
2020/12/24 09:32:12;;;;;;;5.40;1.80;;;9.90;99.90;;;;;;4826773;29;20034;-61
2020/12/24 09:34:38;;;;;;;8.63;1.80;;;10.10;99.90;;;;;;4826537;29;20026;-70
2020/12/24 09:37:04;;;;;;;9.05;1.65;;;8.90;99.90;;;;;;4810289;29;20383;-72
2020/12/24 09:39:29;;;;;;;6.28;1.40;;;8.20;99.90;;;;;;4826506;29;20037;-75
2020/12/24 09:41:56;;;;;;;5.78;1.52;;;7.90;99.90;;;;;;4826225;29;20038;-74
2020/12/24 09:44:21;;;;;;;5.88;2.00;;;7.90;99.90;;;;;;4826390;29;20091;-71
2020/12/24 09:46:48;;;;;;;6.75;1.70;;;7.90;99.90;;;;;;4826330;29;20429;-71
2020/12/24 09:49:15;;;;;;;7.80;1.70;;;7.70;99.90;;;;;;4826641;29;20098;-75
2020/12/24 09:51:41;;;;;;;7.63;1.65;;;7.70;99.90;;;;;;4826244;29;20030;-72
2020/12/24 09:54:07;;;;;;;6.82;1.63;;;7.60;99.90;;;;;;4826245;29;20034;-73
2020/12/24 09:56:33;;;;;;;8.52;1.30;;;7.60;99.90;;;;;;4826258;29;20388;-74
2020/12/24 10:02:21;;;;;;;7.75;1.50;;;7.60;99.90;;;;;;4826370;29;20093;-74
2020/12/24 10:04:47;;;;;;;9.35;1.77;;;7.60;99.90;;;;;;4826083;29;20030;-73
2020/12/24 10:07:12;;;;;;;13.95;2.70;;;7.50;99.90;;;;;;4826241;29;20540;-74
2020/12/24 10:09:38;;;;;;;4.82;1.40;;;7.50;99.90;;;;;;4826116;29;20388;-73
2020/12/24 10:18:48;;;;;;;4.95;1.60;;;6.90;99.90;;;;;;4826252;29;20033;-73
2020/12/24 10:21:13;;;;;;;11.18;1.95;;;6.90;99.90;;;;;;4826036;29;20391;-71
2020/12/24 10:23:39;;;;;;;5.88;1.48;;;6.90;99.90;;;;;;4825747;29;20035;-72
2020/12/24 10:26:04;;;;;;;5.47;1.10;;;6.80;99.90;;;;;;4825735;29;20038;-72
2020/12/24 10:28:30;;;;;;;5.32;1.30;;;6.70;99.90;;;;;;4824855;29;20042;-70
2020/12/24 10:30:56;;;;;;;4.57;1.50;;;6.80;99.90;;;;;;4825994;29;20027;-70
2020/12/24 10:33:22;;;;;;;5.55;1.60;;;6.80;99.90;;;;;;4825668;29;20031;-71
2020/12/24 10:35:48;;;;;;;5.78;1.45;;;6.90;99.90;;;;;;4825867;29;20106;-71
2020/12/24 10:38:14;;;;;;;8.73;1.70;;;7.00;99.90;;;;;;4825481;29;20576;-69
2020/12/24 10:40:40;;;;;;;12.48;2.47;;;7.00;99.90;;;;;;4825518;29;20117;-70
2020/12/24 10:43:05;;;;;;;10.75;2.25;;;7.10;99.90;;;;;;4825384;29;20510;-71
2020/12/24 10:45:31;;;;;;;7.03;1.98;;;7.10;99.90;;;;;;4825281;29;20026;-71
2020/12/24 10:47:57;;;;;;;8.00;1.85;;;7.20;99.90;;;;;;4825254;29;20041;-72
2020/12/24 10:50:22;;;;;;;9.20;1.98;;;7.20;99.90;;;;;;4825292;29;20034;-70
2020/12/24 10:52:48;;;;;;;8.18;1.98;;;7.30;99.90;;;;;;4825370;29;20109;-71
2020/12/24 10:55:14;;;;;;;10.52;2.60;;;7.40;99.90;;;;;;4825045;29;20030;-73
2020/12/24 10:57:39;;;;;;;7.03;1.67;;;7.40;99.90;;;;;;4825299;29;20039;-70
2020/12/24 11:00:06;;;;;;;12.90;2.60;;;7.50;99.90;;;;;;4825111;29;20468;-70
2020/12/24 11:02:32;;;;;;;12.35;2.10;;;7.50;99.90;;;;;;4824994;29;20077;-72
2020/12/24 11:04:57;;;;;;;8.98;1.90;;;7.60;99.90;;;;;;4825083;29;20042;-75
2020/12/24 11:07:23;;;;;;;8.57;2.13;;;7.50;99.90;;;;;;4825050;29;20030;-75
2020/12/24 11:09:49;;;;;;;10.93;1.90;;;7.70;99.90;;;;;;4824933;29;20084;-74
2020/12/24 11:12:14;;;;;;;10.68;2.10;;;7.60;99.90;;;;;;4825244;29;20030;-71
2020/12/24 11:18:01;;;;;;;9.65;2.05;;;7.70;99.90;;;;;;4825300;29;20197;-71
2020/12/24 11:20:27;;;;;;;6.63;1.75;;;7.80;99.90;;;;;;4824900;29;20133;-70
2020/12/24 11:22:53;;;;;;;13.05;1.98;;;7.70;99.90;;;;;;4808589;29;20117;-70
2020/12/24 11:25:18;;;;;;;13.52;2.72;;;7.80;99.90;;;;;;4808819;29;20058;-70
2020/12/24 11:27:44;;;;;;;9.57;2.55;;;7.80;99.90;;;;;;4825111;29;20038;-70
2020/12/24 11:30:09;;;;;;;12.23;2.35;;;7.80;99.90;;;;;;4824923;29;20026;-74
2020/12/24 11:32:35;;;;;;;12.35;2.30;;;7.70;99.90;;;;;;4824753;29;20495;-72
2020/12/24 11:35:01;;;;;;;10.38;2.15;;;7.80;99.90;;;;;;4824743;29;20030;-75
2020/12/24 11:37:26;;;;;;;12.68;2.40;;;7.70;99.90;;;;;;4824527;29;20110;-72
2020/12/24 11:39:52;;;;;;;9.13;2.08;;;7.80;99.90;;;;;;4824651;29;20022;-75
2020/12/24 11:42:18;;;;;;;11.15;2.50;;;7.80;99.90;;;;;;4824527;29;20042;-72
2020/12/24 11:48:05;;;;;;;18.02;3.00;;;7.80;99.90;;;;;;4823055;29;20123;-73
2020/12/24 11:50:31;;;;;;;13.70;2.40;;;7.70;99.90;;;;;;4824733;29;20479;-71
2020/12/24 11:52:57;;;;;;;10.93;2.45;;;7.80;99.90;;;;;;4824285;29;20428;-75
2020/12/24 11:55:22;;;;;;;10.25;2.67;;;7.70;99.90;;;;;;4824386;29;20026;-75
2020/12/24 11:57:48;;;;;;;10.80;3.08;;;7.80;99.90;;;;;;4824381;29;20038;-72
2020/12/24 12:00:14;;;;;;;12.60;2.70;;;7.80;99.90;;;;;;4824315;29;20494;-73
2020/12/24 12:02:39;;;;;;;11.90;2.70;;;7.80;99.90;;;;;;4824303;29;20045;-72
2020/12/24 12:05:06;;;;;;;13.27;2.58;;;7.90;99.90;;;;;;4824552;29;20058;-73
2020/12/24 12:07:32;;;;;;;10.23;2.22;;;7.80;99.90;;;;;;4824069;29;20030;-74
2020/12/24 12:09:58;;;;;;;13.25;2.65;;;7.80;99.90;;;;;;4824386;29;20030;-73
2020/12/24 12:12:23;;;;;;;13.60;2.90;;;7.80;99.90;;;;;;4807902;29;20110;-72
2020/12/24 12:18:11;;;;;;;14.55;2.80;;;7.70;99.90;;;;;;4824376;29;20110;-72
2020/12/24 12:20:41;;;;;;;16.98;2.70;;;7.80;99.90;;;;;;4824124;29;20454;-72
2020/12/24 12:23:06;;;;;;;10.25;2.20;;;7.80;99.90;;;;;;4824234;29;20039;-71
2020/12/24 12:25:32;;;;;;;12.07;2.10;;;7.70;99.90;;;;;;4823881;29;20576;-74
2020/12/24 12:27:58;;;;;;;12.52;2.20;;;7.70;99.90;;;;;;4823982;29;20045;-73
2020/12/24 12:30:23;;;;;;;16.20;2.80;;;7.80;99.90;;;;;;4824010;29;20027;-73
2020/12/24 12:32:49;;;;;;;11.23;1.98;;;8.00;99.90;;;;;;4824242;29;20034;-72
2020/12/24 12:35:15;;;;;;;7.65;1.70;;;8.30;99.90;;;;;;4824011;29;20041;-73
2020/12/24 12:37:40;;;;;;;6.85;1.35;;;8.80;99.90;;;;;;4824049;29;20074;-71
2020/12/24 12:40:07;;;;;;;3.55;1.13;;;8.70;99.90;;;;;;4823770;29;20035;-73
2020/12/24 12:42:33;;;;;;;5.60;0.90;;;8.50;99.90;;;;;;4823930;29;20478;-73
2020/12/24 12:48:20;;;;;;;5.57;1.35;;;7.80;99.90;;;;;;4823376;29;20056;-73
2020/12/24 12:50:47;;;;;;;5.22;1.20;;;7.70;99.90;;;;;;4823774;29;20043;-74
2020/12/24 12:53:13;;;;;;;8.40;1.25;;;7.70;99.90;;;;;;4826483;29;20394;-72
2020/12/24 12:55:40;;;;;;;5.05;1.10;;;7.80;99.90;;;;;;4827183;29;20030;-73
2020/12/24 13:04:30;;;;;;;4.68;1.33;;;8.50;99.90;;;;;;4827419;29;20045;-71
2020/12/24 13:06:57;;;;;;;8.43;1.40;;;8.10;99.90;;;;;;4827050;29;20447;-72
2020/12/24 13:09:23;;;;;;;11.68;1.60;;;7.90;99.90;;;;;;4826958;29;20026;-73
2020/12/24 13:11:49;;;;;;;5.78;1.50;;;7.70;99.90;;;;;;4827016;29;20046;-73
2020/12/24 13:14:21;;;;;;;7.18;1.65;;;7.60;99.90;;;;;;4827119;29;20034;-73
2020/12/24 13:16:48;;;;;;;10.18;1.95;;;7.50;99.90;;;;;;4826749;29;20034;-73
2020/12/24 13:19:14;;;;;;;5.75;1.33;;;7.50;99.90;;;;;;4827037;29;20405;-72
2020/12/24 13:21:40;;;;;;;6.68;1.40;;;7.20;99.90;;;;;;4826742;29;20092;-74
2020/12/24 13:24:06;;;;;;;9.10;1.27;;;7.00;99.90;;;;;;4826748;29;20034;-72
2020/12/24 13:26:32;;;;;;;6.35;1.23;;;6.90;99.90;;;;;;4826705;29;20022;-73
2020/12/24 13:28:57;;;;;;;4.25;1.23;;;6.90;99.90;;;;;;4827011;29;20088;-72
2020/12/24 13:31:23;;;;;;;6.72;1.00;;;6.60;99.90;;;;;;4826616;29;20506;-73
2020/12/24 13:33:49;;;;;;;4.18;1.92;;;6.50;99.90;;;;;;4826636;29;20053;-73
2020/12/24 13:36:14;;;;;;;5.07;1.55;;;6.50;99.90;;;;;;4826774;29;20490;-73
2020/12/24 13:38:40;;;;;;;5.38;1.30;;;6.60;99.90;;;;;;4826428;29;20038;-74
2020/12/24 13:41:06;;;;;;;5.82;1.63;;;6.60;99.90;;;;;;4826640;29;20033;-74
2020/12/24 13:43:31;;;;;;;6.18;1.50;;;6.60;99.90;;;;;;4826632;29;20539;-74
2020/12/24 13:45:57;;;;;;;4.45;1.27;;;6.60;99.90;;;;;;4826355;29;20105;-74
2020/12/24 13:48:23;;;;;;;4.15;1.40;;;6.60;99.90;;;;;;4826204;29;20054;-73
2020/12/24 13:50:51;;;;;;;2.63;1.02;;;6.60;99.90;;;;;;4826665;29;20482;-73
2020/12/24 13:53:17;;;;;;;3.47;1.38;;;6.60;99.90;;;;;;4826234;29;20031;-73
2020/12/24 13:55:43;;;;;;;5.18;1.38;;;6.70;99.90;;;;;;4826206;29;20043;-73
2020/12/24 13:58:09;;;;;;;3.88;1.23;;;6.80;99.90;;;;;;4826448;29;20104;-74
2020/12/24 14:03:56;;;;;;;3.40;1.23;;;7.20;99.90;;;;;;4825253;29;20579;-73
2020/12/24 14:06:22;;;;;;;3.97;1.30;;;7.60;99.90;;;;;;4826163;29;20122;-70
2020/12/24 14:08:48;;;;;;;3.65;1.10;;;7.20;99.90;;;;;;4826327;29;20032;-73
2020/12/24 14:11:18;;;;;;;2.55;0.80;;;7.20;99.90;;;;;;4826060;29;20027;-73
2020/12/24 14:13:45;;;;;;;4.15;1.20;;;7.60;99.90;;;;;;4825998;29;20031;-72